Time,TemperatureF,DewpointF,PressureIn,WindDirection,WindDirectionDegrees,WindSpeedMPH,WindSpeedGustMPH,Humidity,HourlyPrecipIn,Conditions,Clouds,dailyrainin,SoftwareType,DateUTC
2013-09-07 00:00:00,67.4,63.7,29.88,SSW,202,0.0,2.0,88,0.00,,---,0.00,VWS V14.01,2013-09-07 05:00:00,
2013-09-07 00:30:00,67.0,63.3,29.88,SSW,202,0.0,4.0,88,0.00,,---,0.00,VWS V14.01,2013-09-07 05:30:00,
2013-09-07 01:00:00,66.5,63.2,29.88,SSW,202,0.0,0.0,89,0.00,,---,0.00,VWS V14.01,2013-09-07 06:00:00,
2013-09-07 01:30:00,66.0,63.0,29.87,SSW,202,0.0,0.0,90,0.00,,---,0.00,VWS V14.01,2013-09-07 06:30:00,
2013-09-07 02:00:00,65.3,62.3,29.87,SSW,202,0.0,0.0,90,0.00,,---,0.00,VWS V14.01,2013-09-07 07:00:00,
2013-09-07 02:30:00,64.9,62.2,29.87,SSW,202,0.0,0.0,91,0.00,,---,0.00,VWS V14.01,2013-09-07 07:30:00,
2013-09-07 03:00:00,64.8,62.1,29.87,SSW,202,0.0,0.0,91,0.00,,---,0.00,VWS V14.01,2013-09-07 08:00:00,
2013-09-07 03:30:00,64.4,61.7,29.87,SSW,202,0.0,0.0,91,0.00,,---,0.00,VWS V14.01,2013-09-07 08:30:00,
2013-09-07 04:00:00,64.0,61.3,29.87,SSW,202,0.0,0.0,91,0.00,,---,0.00,VWS V14.01,2013-09-07 09:00:00,
2013-09-07 04:30:00,63.8,61.4,29.87,SSW,202,0.0,0.0,92,0.00,,---,0.00,VWS V14.01,2013-09-07 09:30:00,
2013-09-07 05:00:00,64.0,61.6,29.86,SSW,209,0.0,5.0,92,0.07,,---,0.07,VWS V14.01,2013-09-07 10:00:00,
2013-09-07 05:30:00,64.0,61.3,29.86,SSW,209,0.0,2.0,91,0.07,,---,0.07,VWS V14.01,2013-09-07 10:30:00,
2013-09-07 06:00:00,63.5,61.1,29.86,SSW,209,0.0,0.0,92,0.07,,---,0.07,VWS V14.01,2013-09-07 11:00:00,
2013-09-07 06:30:00,63.5,61.1,29.86,SSW,209,0.0,0.0,92,0.00,,---,0.07,VWS V14.01,2013-09-07 11:30:00,
2013-09-07 07:00:00,64.2,61.5,29.85,SSW,209,0.0,0.0,91,0.00,,---,0.07,VWS V14.01,2013-09-07 12:00:00,
2013-09-07 07:30:00,65.2,62.5,29.84,SSW,202,3.0,5.0,91,0.01,,---,0.08,VWS V14.01,2013-09-07 12:30:00,
2013-09-07 08:00:00,66.4,62.7,29.84,WSW,255,0.0,5.0,88,0.01,,---,0.08,VWS V14.01,2013-09-07 13:00:00,
2013-09-07 08:30:00,68.4,64.1,29.84,NW,326,2.0,6.0,86,0.01,,---,0.08,VWS V14.01,2013-09-07 13:30:00,
2013-09-07 09:00:00,71.3,64.5,29.84,West,277,3.0,9.0,79,0.00,,---,0.08,VWS V14.01,2013-09-07 14:00:00,
2013-09-07 09:30:00,73.3,64.9,29.83,West,269,3.0,9.0,75,0.00,,---,0.08,VWS V14.01,2013-09-07 14:30:00,
2013-09-07 10:00:00,75.4,65.8,29.82,WNW,288,4.0,10.0,72,0.00,,---,0.08,VWS V14.01,2013-09-07 15:00:00,
2013-09-07 10:30:00,77.6,64.5,29.82,WSW,257,4.0,12.0,64,0.00,,---,0.08,VWS V14.01,2013-09-07 15:30:00,
2013-09-07 11:00:00,80.2,65.5,29.81,WNW,300,6.0,11.0,61,0.00,,---,0.08,VWS V14.01,2013-09-07 16:00:00,
2013-09-07 11:30:00,79.4,64.8,29.80,West,277,6.0,12.0,61,0.00,,---,0.08,VWS V14.01,2013-09-07 16:30:00,
2013-09-07 12:00:00,77.9,64.8,29.77,West,269,3.0,9.0,64,0.00,,---,0.08,VWS V14.01,2013-09-07 17:00:00,
2013-09-07 12:30:00,76.9,65.1,29.79,WNW,294,0.0,9.0,67,0.00,,---,0.08,VWS V14.01,2013-09-07 17:30:00,
2013-09-07 13:00:00,69.8,66.4,29.83,North,355,0.0,13.0,89,0.20,,---,0.28,VWS V14.01,2013-09-07 18:00:00,
2013-09-07 13:30:00,68.8,66.7,29.81,ESE,117,3.0,10.0,93,0.39,,---,0.47,VWS V14.01,2013-09-07 18:30:00,
2013-09-07 14:00:00,69.3,67.2,29.83,SSW,204,2.0,7.0,93,0.39,,---,0.47,VWS V14.01,2013-09-07 19:00:00,
2013-09-07 14:30:00,70.4,68.0,29.79,SE,128,2.0,7.0,92,0.19,,---,0.47,VWS V14.01,2013-09-07 19:30:00,
2013-09-07 15:00:00,74.9,69.0,29.79,ESE,107,2.0,10.0,82,0.00,,---,0.47,VWS V14.01,2013-09-07 20:00:00,
2013-09-07 15:30:00,74.4,67.8,29.78,SSE,150,1.0,12.0,80,0.01,,---,0.48,VWS V14.01,2013-09-07 20:30:00,
2013-09-07 16:00:00,74.8,68.6,29.78,ESE,113,0.0,12.0,81,0.01,,---,0.48,VWS V14.01,2013-09-07 21:00:00,
2013-09-07 16:30:00,76.6,68.5,29.78,South,179,0.0,6.0,76,0.01,,---,0.48,VWS V14.01,2013-09-07 21:30:00,
2013-09-07 17:00:00,76.5,68.4,29.78,SSW,194,0.0,7.0,76,0.00,,---,0.48,VWS V14.01,2013-09-07 22:00:00,
2013-09-07 17:30:00,76.6,68.1,29.78,SSW,194,0.0,5.0,75,0.00,,---,0.48,VWS V14.01,2013-09-07 22:30:00,
2013-09-07 18:00:00,76.4,68.3,29.79,South,188,0.0,5.0,76,0.00,,---,0.48,VWS V14.01,2013-09-07 23:00:00,
2013-09-07 18:30:00,75.6,68.6,29.79,South,188,0.0,0.0,79,0.00,,---,0.48,VWS V14.01,2013-09-07 23:30:00,
2013-09-07 19:00:00,73.9,68.1,29.79,South,188,0.0,0.0,82,0.00,,---,0.48,VWS V14.01,2013-09-08 00:00:00,
2013-09-07 19:30:00,71.6,67.5,29.80,South,188,0.0,0.0,87,0.00,,---,0.48,VWS V14.01,2013-09-08 00:30:00,
2013-09-07 20:00:00,70.4,67.3,29.81,South,188,0.0,0.0,90,0.00,,---,0.48,VWS V14.01,2013-09-08 01:00:00,
2013-09-07 20:30:00,69.5,66.4,29.82,South,188,0.0,0.0,90,0.00,,---,0.48,VWS V14.01,2013-09-08 01:30:00,
2013-09-07 21:00:00,68.9,66.2,29.83,South,188,0.0,0.0,91,0.00,,---,0.48,VWS V14.01,2013-09-08 02:00:00,
2013-09-07 21:30:00,68.3,65.9,29.83,South,188,0.0,0.0,92,0.00,,---,0.48,VWS V14.01,2013-09-08 02:30:00,
2013-09-07 22:00:00,69.9,67.5,29.84,South,188,0.0,0.0,92,0.00,,---,0.48,VWS V14.01,2013-09-08 03:00:00,
2013-09-07 22:30:00,70.6,66.9,29.84,South,188,0.0,1.0,88,0.00,,---,0.48,VWS V14.01,2013-09-08 03:30:00,
2013-09-07 23:00:00,71.0,66.9,29.86,NNE,28,4.0,7.0,87,0.00,,---,0.48,VWS V14.01,2013-09-08 04:00:00,
2013-09-07 23:30:00,68.9,65.8,29.87,NW,309,1.0,9.0,90,0.00,,---,0.48,VWS V14.01,2013-09-08 04:30:00,